sensor_id;sensor_type;location;lat;lon;timestamp;P1;durP1;ratioP1;P2;durP2;ratioP2
61685;SDS011;47592;45.904;8.978;2023-06-19T00:01:57;8.98;;;7.35;;
61685;SDS011;47592;45.904;8.978;2023-06-19T00:04:22;11.50;;;7.60;;
61685;SDS011;47592;45.904;8.978;2023-06-19T00:06:47;11.10;;;7.90;;
61685;SDS011;47592;45.904;8.978;2023-06-19T00:09:15;10.23;;;8.55;;
61685;SDS011;47592;45.904;8.978;2023-06-19T00:11:40;9.88;;;8.20;;
61685;SDS011;47592;45.904;8.978;2023-06-19T00:14:08;11.33;;;8.70;;
61685;SDS011;47592;45.904;8.978;2023-06-19T00:16:33;10.07;;;7.93;;
61685;SDS011;47592;45.904;8.978;2023-06-19T00:18:58;9.95;;;7.93;;
61685;SDS011;47592;45.904;8.978;2023-06-19T00:21:24;9.63;;;8.00;;
61685;SDS011;47592;45.904;8.978;2023-06-19T00:23:50;9.77;;;7.85;;
61685;SDS011;47592;45.904;8.978;2023-06-19T00:26:16;10.48;;;7.82;;
61685;SDS011;47592;45.904;8.978;2023-06-19T00:28:47;10.38;;;8.30;;
61685;SDS011;47592;45.904;8.978;2023-06-19T00:31:18;11.52;;;8.30;;
61685;SDS011;47592;45.904;8.978;2023-06-19T00:33:46;11.75;;;8.88;;
61685;SDS011;47592;45.904;8.978;2023-06-19T00:36:17;10.20;;;8.18;;
61685;SDS011;47592;45.904;8.978;2023-06-19T00:38:51;9.82;;;7.70;;
61685;SDS011;47592;45.904;8.978;2023-06-19T00:41:16;11.38;;;8.38;;
61685;SDS011;47592;45.904;8.978;2023-06-19T00:43:42;9.25;;;7.63;;
61685;SDS011;47592;45.904;8.978;2023-06-19T00:46:07;11.23;;;7.90;;
61685;SDS011;47592;45.904;8.978;2023-06-19T00:48:34;10.75;;;8.20;;
61685;SDS011;47592;45.904;8.978;2023-06-19T00:50:59;9.98;;;8.38;;
61685;SDS011;47592;45.904;8.978;2023-06-19T00:53:24;11.55;;;8.25;;
61685;SDS011;47592;45.904;8.978;2023-06-19T00:55:50;10.45;;;7.85;;
61685;SDS011;47592;45.904;8.978;2023-06-19T00:58:17;11.55;;;8.57;;
61685;SDS011;47592;45.904;8.978;2023-06-19T01:00:42;10.73;;;8.23;;
61685;SDS011;47592;45.904;8.978;2023-06-19T01:03:09;12.00;;;8.55;;
61685;SDS011;47592;45.904;8.978;2023-06-19T01:05:35;9.20;;;7.90;;
61685;SDS011;47592;45.904;8.978;2023-06-19T01:10:46;10.55;;;8.43;;
61685;SDS011;47592;45.904;8.978;2023-06-19T01:15:56;10.30;;;8.48;;
61685;SDS011;47592;45.904;8.978;2023-06-19T01:18:22;11.88;;;8.93;;
61685;SDS011;47592;45.904;8.978;2023-06-19T01:20:50;10.50;;;8.82;;
61685;SDS011;47592;45.904;8.978;2023-06-19T01:23:16;10.60;;;8.57;;
61685;SDS011;47592;45.904;8.978;2023-06-19T01:25:41;9.90;;;8.20;;
61685;SDS011;47592;45.904;8.978;2023-06-19T01:28:07;9.80;;;8.10;;
61685;SDS011;47592;45.904;8.978;2023-06-19T01:30:35;10.93;;;8.77;;
61685;SDS011;47592;45.904;8.978;2023-06-19T01:33:20;11.35;;;8.02;;
61685;SDS011;47592;45.904;8.978;2023-06-19T01:35:48;10.20;;;8.27;;
61685;SDS011;47592;45.904;8.978;2023-06-19T01:38:14;10.50;;;8.32;;
61685;SDS011;47592;45.904;8.978;2023-06-19T01:40:40;11.00;;;8.73;;
61685;SDS011;47592;45.904;8.978;2023-06-19T01:43:05;11.70;;;8.48;;
61685;SDS011;47592;45.904;8.978;2023-06-19T01:45:32;11.50;;;9.10;;
61685;SDS011;47592;45.904;8.978;2023-06-19T01:47:59;13.60;;;8.70;;
61685;SDS011;47592;45.904;8.978;2023-06-19T01:50:25;12.53;;;8.47;;
61685;SDS011;47592;45.904;8.978;2023-06-19T01:52:50;13.05;;;8.65;;
61685;SDS011;47592;45.904;8.978;2023-06-19T01:55:20;11.48;;;8.93;;
61685;SDS011;47592;45.904;8.978;2023-06-19T01:57:48;10.50;;;9.02;;
61685;SDS011;47592;45.904;8.978;2023-06-19T02:00:13;9.70;;;8.27;;
61685;SDS011;47592;45.904;8.978;2023-06-19T02:02:39;10.38;;;8.73;;
61685;SDS011;47592;45.904;8.978;2023-06-19T02:05:04;11.40;;;9.10;;
61685;SDS011;47592;45.904;8.978;2023-06-19T02:07:29;12.68;;;8.40;;
61685;SDS011;47592;45.904;8.978;2023-06-19T02:09:55;10.02;;;8.35;;
61685;SDS011;47592;45.904;8.978;2023-06-19T02:12:20;10.73;;;9.15;;
61685;SDS011;47592;45.904;8.978;2023-06-19T02:14:45;10.63;;;8.43;;
61685;SDS011;47592;45.904;8.978;2023-06-19T02:17:10;9.33;;;8.30;;
61685;SDS011;47592;45.904;8.978;2023-06-19T02:19:38;9.30;;;7.53;;
61685;SDS011;47592;45.904;8.978;2023-06-19T02:22:03;10.68;;;7.93;;
61685;SDS011;47592;45.904;8.978;2023-06-19T02:24:29;9.82;;;8.20;;
61685;SDS011;47592;45.904;8.978;2023-06-19T02:26:54;12.43;;;7.67;;
61685;SDS011;47592;45.904;8.978;2023-06-19T02:29:19;8.97;;;7.53;;
61685;SDS011;47592;45.904;8.978;2023-06-19T02:31:45;10.48;;;7.60;;
61685;SDS011;47592;45.904;8.978;2023-06-19T02:34:10;11.77;;;7.80;;
61685;SDS011;47592;45.904;8.978;2023-06-19T02:36:40;9.15;;;7.68;;
61685;SDS011;47592;45.904;8.978;2023-06-19T02:39:05;9.00;;;7.95;;
61685;SDS011;47592;45.904;8.978;2023-06-19T02:41:31;12.75;;;8.40;;
61685;SDS011;47592;45.904;8.978;2023-06-19T02:43:56;10.82;;;8.25;;
61685;SDS011;47592;45.904;8.978;2023-06-19T02:46:21;10.93;;;9.10;;
61685;SDS011;47592;45.904;8.978;2023-06-19T02:48:47;10.60;;;8.60;;
61685;SDS011;47592;45.904;8.978;2023-06-19T02:51:12;11.35;;;8.60;;
61685;SDS011;47592;45.904;8.978;2023-06-19T02:53:37;11.57;;;8.60;;
61685;SDS011;47592;45.904;8.978;2023-06-19T02:56:03;10.83;;;8.97;;
61685;SDS011;47592;45.904;8.978;2023-06-19T02:58:28;9.32;;;8.05;;
61685;SDS011;47592;45.904;8.978;2023-06-19T03:00:54;12.70;;;8.77;;
61685;SDS011;47592;45.904;8.978;2023-06-19T03:03:21;10.82;;;8.63;;
61685;SDS011;47592;45.904;8.978;2023-06-19T03:05:48;10.90;;;9.02;;
61685;SDS011;47592;45.904;8.978;2023-06-19T03:08:15;10.10;;;8.43;;
61685;SDS011;47592;45.904;8.978;2023-06-19T03:10:43;12.90;;;9.30;;
61685;SDS011;47592;45.904;8.978;2023-06-19T03:13:10;9.82;;;8.38;;
61685;SDS011;47592;45.904;8.978;2023-06-19T03:15:36;10.67;;;8.27;;
61685;SDS011;47592;45.904;8.978;2023-06-19T03:18:01;11.77;;;8.73;;
61685;SDS011;47592;45.904;8.978;2023-06-19T03:20:29;12.00;;;9.32;;
61685;SDS011;47592;45.904;8.978;2023-06-19T03:22:54;10.38;;;9.05;;
61685;SDS011;47592;45.904;8.978;2023-06-19T03:25:19;10.43;;;8.70;;
61685;SDS011;47592;45.904;8.978;2023-06-19T03:27:47;9.93;;;8.60;;
61685;SDS011;47592;45.904;8.978;2023-06-19T03:30:12;9.73;;;8.27;;
61685;SDS011;47592;45.904;8.978;2023-06-19T03:32:40;10.07;;;8.25;;
61685;SDS011;47592;45.904;8.978;2023-06-19T03:35:05;11.02;;;8.65;;
61685;SDS011;47592;45.904;8.978;2023-06-19T03:37:33;11.18;;;8.02;;
61685;SDS011;47592;45.904;8.978;2023-06-19T03:39:59;10.25;;;8.25;;
61685;SDS011;47592;45.904;8.978;2023-06-19T03:42:24;9.63;;;8.57;;
61685;SDS011;47592;45.904;8.978;2023-06-19T03:44:49;11.53;;;8.17;;
61685;SDS011;47592;45.904;8.978;2023-06-19T03:47:14;10.13;;;7.93;;
61685;SDS011;47592;45.904;8.978;2023-06-19T03:49:42;11.95;;;8.98;;
61685;SDS011;47592;45.904;8.978;2023-06-19T03:52:07;11.40;;;8.65;;
61685;SDS011;47592;45.904;8.978;2023-06-19T03:54:33;10.75;;;8.93;;
61685;SDS011;47592;45.904;8.978;2023-06-19T03:56:58;9.67;;;8.40;;
61685;SDS011;47592;45.904;8.978;2023-06-19T03:59:23;10.57;;;8.83;;
61685;SDS011;47592;45.904;8.978;2023-06-19T04:01:49;11.00;;;9.23;;
61685;SDS011;47592;45.904;8.978;2023-06-19T04:04:14;9.37;;;7.90;;
61685;SDS011;47592;45.904;8.978;2023-06-19T04:06:39;11.07;;;8.73;;
61685;SDS011;47592;45.904;8.978;2023-06-19T04:09:04;10.80;;;8.55;;
61685;SDS011;47592;45.904;8.978;2023-06-19T04:11:32;10.50;;;8.50;;
61685;SDS011;47592;45.904;8.978;2023-06-19T04:13:58;10.60;;;8.40;;
61685;SDS011;47592;45.904;8.978;2023-06-19T04:16:23;11.47;;;8.93;;
61685;SDS011;47592;45.904;8.978;2023-06-19T04:18:48;10.47;;;8.47;;
61685;SDS011;47592;45.904;8.978;2023-06-19T04:21:16;9.35;;;8.10;;
61685;SDS011;47592;45.904;8.978;2023-06-19T04:23:42;11.50;;;8.97;;
61685;SDS011;47592;45.904;8.978;2023-06-19T04:26:07;10.77;;;8.47;;
61685;SDS011;47592;45.904;8.978;2023-06-19T04:28:34;9.48;;;8.45;;
61685;SDS011;47592;45.904;8.978;2023-06-19T04:31:00;10.73;;;8.90;;
61685;SDS011;47592;45.904;8.978;2023-06-19T04:33:28;10.48;;;8.70;;
61685;SDS011;47592;45.904;8.978;2023-06-19T04:35:54;11.15;;;8.75;;
61685;SDS011;47592;45.904;8.978;2023-06-19T04:38:21;10.43;;;8.63;;
61685;SDS011;47592;45.904;8.978;2023-06-19T04:40:49;12.02;;;8.50;;
61685;SDS011;47592;45.904;8.978;2023-06-19T04:43:14;12.23;;;8.52;;
61685;SDS011;47592;45.904;8.978;2023-06-19T04:45:40;11.33;;;8.93;;
61685;SDS011;47592;45.904;8.978;2023-06-19T04:48:05;11.38;;;8.95;;
61685;SDS011;47592;45.904;8.978;2023-06-19T04:50:30;10.20;;;8.20;;
61685;SDS011;47592;45.904;8.978;2023-06-19T04:52:56;12.23;;;8.80;;
61685;SDS011;47592;45.904;8.978;2023-06-19T04:55:23;11.25;;;8.60;;
61685;SDS011;47592;45.904;8.978;2023-06-19T04:57:51;11.40;;;8.93;;
61685;SDS011;47592;45.904;8.978;2023-06-19T05:00:16;10.30;;;8.73;;
61685;SDS011;47592;45.904;8.978;2023-06-19T05:02:44;9.55;;;8.25;;
61685;SDS011;47592;45.904;8.978;2023-06-19T05:05:12;10.98;;;7.82;;
61685;SDS011;47592;45.904;8.978;2023-06-19T05:07:37;11.07;;;8.55;;
61685;SDS011;47592;45.904;8.978;2023-06-19T05:10:03;9.70;;;8.70;;
61685;SDS011;47592;45.904;8.978;2023-06-19T05:12:28;10.38;;;8.48;;
61685;SDS011;47592;45.904;8.978;2023-06-19T05:14:56;9.85;;;8.23;;
61685;SDS011;47592;45.904;8.978;2023-06-19T05:17:21;9.57;;;8.07;;
61685;SDS011;47592;45.904;8.978;2023-06-19T05:19:49;10.52;;;8.35;;
61685;SDS011;47592;45.904;8.978;2023-06-19T05:22:18;10.85;;;8.80;;
61685;SDS011;47592;45.904;8.978;2023-06-19T05:24:43;9.68;;;8.27;;
61685;SDS011;47592;45.904;8.978;2023-06-19T05:27:09;12.97;;;8.67;;
61685;SDS011;47592;45.904;8.978;2023-06-19T05:29:34;10.87;;;8.57;;
61685;SDS011;47592;45.904;8.978;2023-06-19T05:32:00;9.63;;;8.52;;
61685;SDS011;47592;45.904;8.978;2023-06-19T05:34:27;10.40;;;8.10;;
61685;SDS011;47592;45.904;8.978;2023-06-19T05:36:55;10.40;;;8.35;;
61685;SDS011;47592;45.904;8.978;2023-06-19T05:39:20;9.90;;;8.48;;
61685;SDS011;47592;45.904;8.978;2023-06-19T05:41:46;12.00;;;8.52;;
61685;SDS011;47592;45.904;8.978;2023-06-19T05:44:12;11.43;;;9.10;;
61685;SDS011;47592;45.904;8.978;2023-06-19T05:46:41;10.05;;;8.45;;
61685;SDS011;47592;45.904;8.978;2023-06-19T05:49:07;9.20;;;8.23;;
61685;SDS011;47592;45.904;8.978;2023-06-19T05:51:32;10.30;;;8.10;;
61685;SDS011;47592;45.904;8.978;2023-06-19T05:53:57;9.00;;;7.40;;
61685;SDS011;47592;45.904;8.978;2023-06-19T05:56:28;11.18;;;7.93;;
61685;SDS011;47592;45.904;8.978;2023-06-19T05:58:56;10.27;;;7.85;;
61685;SDS011;47592;45.904;8.978;2023-06-19T06:01:21;9.38;;;7.22;;
61685;SDS011;47592;45.904;8.978;2023-06-19T06:03:46;9.43;;;7.65;;
61685;SDS011;47592;45.904;8.978;2023-06-19T06:06:11;10.17;;;7.63;;
61685;SDS011;47592;45.904;8.978;2023-06-19T06:08:37;11.60;;;7.53;;
61685;SDS011;47592;45.904;8.978;2023-06-19T06:11:02;9.15;;;7.35;;
61685;SDS011;47592;45.904;8.978;2023-06-19T06:13:27;9.27;;;7.10;;
61685;SDS011;47592;45.904;8.978;2023-06-19T06:15:53;16.70;;;8.37;;
61685;SDS011;47592;45.904;8.978;2023-06-19T06:18:18;9.37;;;7.37;;
61685;SDS011;47592;45.904;8.978;2023-06-19T06:20:43;11.75;;;7.82;;
61685;SDS011;47592;45.904;8.978;2023-06-19T06:23:08;11.15;;;8.35;;
61685;SDS011;47592;45.904;8.978;2023-06-19T06:25:34;13.27;;;8.70;;
61685;SDS011;47592;45.904;8.978;2023-06-19T06:27:59;10.32;;;7.57;;
61685;SDS011;47592;45.904;8.978;2023-06-19T06:30:25;10.10;;;7.55;;
61685;SDS011;47592;45.904;8.978;2023-06-19T06:32:52;10.13;;;7.50;;
61685;SDS011;47592;45.904;8.978;2023-06-19T06:35:17;10.10;;;7.90;;
61685;SDS011;47592;45.904;8.978;2023-06-19T06:37:43;8.80;;;7.53;;
61685;SDS011;47592;45.904;8.978;2023-06-19T06:40:11;8.35;;;7.22;;
61685;SDS011;47592;45.904;8.978;2023-06-19T06:42:39;11.80;;;7.63;;
61685;SDS011;47592;45.904;8.978;2023-06-19T06:45:05;9.95;;;7.43;;
61685;SDS011;47592;45.904;8.978;2023-06-19T06:47:36;8.32;;;7.43;;
61685;SDS011;47592;45.904;8.978;2023-06-19T06:50:02;9.90;;;7.93;;
61685;SDS011;47592;45.904;8.978;2023-06-19T06:52:29;9.48;;;7.60;;
61685;SDS011;47592;45.904;8.978;2023-06-19T06:54:56;11.02;;;7.72;;
61685;SDS011;47592;45.904;8.978;2023-06-19T06:57:21;10.10;;;8.30;;
61685;SDS011;47592;45.904;8.978;2023-06-19T06:59:46;10.43;;;8.23;;
61685;SDS011;47592;45.904;8.978;2023-06-19T07:02:11;9.75;;;7.60;;
61685;SDS011;47592;45.904;8.978;2023-06-19T07:04:39;11.52;;;8.07;;
61685;SDS011;47592;45.904;8.978;2023-06-19T07:07:04;9.57;;;7.80;;
61685;SDS011;47592;45.904;8.978;2023-06-19T07:09:33;9.63;;;7.53;;
61685;SDS011;47592;45.904;8.978;2023-06-19T07:11:59;11.50;;;8.50;;
61685;SDS011;47592;45.904;8.978;2023-06-19T07:14:26;9.43;;;7.50;;
61685;SDS011;47592;45.904;8.978;2023-06-19T07:16:52;8.97;;;7.53;;
61685;SDS011;47592;45.904;8.978;2023-06-19T07:19:17;9.60;;;7.90;;
61685;SDS011;47592;45.904;8.978;2023-06-19T07:21:42;9.43;;;7.80;;
61685;SDS011;47592;45.904;8.978;2023-06-19T07:24:10;10.57;;;7.82;;
61685;SDS011;47592;45.904;8.978;2023-06-19T07:26:35;10.17;;;7.80;;
61685;SDS011;47592;45.904;8.978;2023-06-19T07:29:01;10.57;;;7.90;;
61685;SDS011;47592;45.904;8.978;2023-06-19T07:31:26;11.77;;;8.30;;
61685;SDS011;47592;45.904;8.978;2023-06-19T07:33:51;10.07;;;7.80;;
61685;SDS011;47592;45.904;8.978;2023-06-19T07:36:19;10.02;;;7.82;;
61685;SDS011;47592;45.904;8.978;2023-06-19T07:38:44;8.83;;;7.57;;
61685;SDS011;47592;45.904;8.978;2023-06-19T07:41:10;9.45;;;7.57;;
61685;SDS011;47592;45.904;8.978;2023-06-19T07:43:36;11.77;;;7.68;;
61685;SDS011;47592;45.904;8.978;2023-06-19T07:46:01;10.55;;;7.82;;
61685;SDS011;47592;45.904;8.978;2023-06-19T07:48:26;9.48;;;7.45;;
61685;SDS011;47592;45.904;8.978;2023-06-19T07:50:53;14.77;;;8.50;;
61685;SDS011;47592;45.904;8.978;2023-06-19T07:53:18;10.18;;;7.78;;
61685;SDS011;47592;45.904;8.978;2023-06-19T07:55:43;10.13;;;7.00;;
61685;SDS011;47592;45.904;8.978;2023-06-19T07:58:11;12.00;;;7.27;;
61685;SDS011;47592;45.904;8.978;2023-06-19T08:00:36;8.52;;;7.05;;
61685;SDS011;47592;45.904;8.978;2023-06-19T08:03:01;8.20;;;6.70;;
61685;SDS011;47592;45.904;8.978;2023-06-19T08:05:27;8.80;;;7.17;;
61685;SDS011;47592;45.904;8.978;2023-06-19T08:07:52;8.97;;;6.90;;
61685;SDS011;47592;45.904;8.978;2023-06-19T08:10:17;8.95;;;7.72;;
61685;SDS011;47592;45.904;8.978;2023-06-19T08:12:43;9.20;;;7.90;;
61685;SDS011;47592;45.904;8.978;2023-06-19T08:15:09;9.43;;;7.38;;
61685;SDS011;47592;45.904;8.978;2023-06-19T08:17:34;9.35;;;7.28;;
61685;SDS011;47592;45.904;8.978;2023-06-19T08:20:02;11.63;;;7.90;;
61685;SDS011;47592;45.904;8.978;2023-06-19T08:22:30;9.85;;;7.60;;
61685;SDS011;47592;45.904;8.978;2023-06-19T08:24:55;10.32;;;7.95;;
61685;SDS011;47592;45.904;8.978;2023-06-19T08:27:21;8.57;;;7.00;;
61685;SDS011;47592;45.904;8.978;2023-06-19T08:29:46;10.17;;;7.20;;
61685;SDS011;47592;45.904;8.978;2023-06-19T08:32:14;12.68;;;7.72;;
61685;SDS011;47592;45.904;8.978;2023-06-19T08:34:39;8.40;;;7.23;;
61685;SDS011;47592;45.904;8.978;2023-06-19T08:37:05;10.02;;;7.32;;
61685;SDS011;47592;45.904;8.978;2023-06-19T08:39:33;8.50;;;7.40;;
61685;SDS011;47592;45.904;8.978;2023-06-19T08:41:58;10.23;;;7.78;;
61685;SDS011;47592;45.904;8.978;2023-06-19T08:44:24;10.27;;;7.20;;
61685;SDS011;47592;45.904;8.978;2023-06-19T08:46:51;12.25;;;8.07;;
61685;SDS011;47592;45.904;8.978;2023-06-19T08:49:19;9.43;;;7.35;;
61685;SDS011;47592;45.904;8.978;2023-06-19T08:51:44;11.33;;;7.43;;
61685;SDS011;47592;45.904;8.978;2023-06-19T08:54:09;13.13;;;7.20;;
61685;SDS011;47592;45.904;8.978;2023-06-19T08:56:35;9.93;;;7.27;;
61685;SDS011;47592;45.904;8.978;2023-06-19T08:59:18;9.43;;;7.28;;
61685;SDS011;47592;45.904;8.978;2023-06-19T09:01:47;14.07;;;7.45;;
61685;SDS011;47592;45.904;8.978;2023-06-19T09:04:33;9.70;;;7.63;;
61685;SDS011;47592;45.904;8.978;2023-06-19T09:06:59;8.80;;;7.20;;
61685;SDS011;47592;45.904;8.978;2023-06-19T09:09:25;10.23;;;7.72;;
61685;SDS011;47592;45.904;8.978;2023-06-19T09:12:08;10.73;;;7.10;;
61685;SDS011;47592;45.904;8.978;2023-06-19T09:14:40;10.13;;;7.28;;
61685;SDS011;47592;45.904;8.978;2023-06-19T09:17:12;10.88;;;7.15;;
61685;SDS011;47592;45.904;8.978;2023-06-19T09:19:37;10.95;;;7.57;;
61685;SDS011;47592;45.904;8.978;2023-06-19T09:22:06;8.50;;;6.95;;
61685;SDS011;47592;45.904;8.978;2023-06-19T09:24:35;8.88;;;6.80;;
61685;SDS011;47592;45.904;8.978;2023-06-19T09:27:05;9.35;;;6.22;;
61685;SDS011;47592;45.904;8.978;2023-06-19T09:31:58;7.70;;;6.32;;
61685;SDS011;47592;45.904;8.978;2023-06-19T09:34:23;9.70;;;7.13;;
61685;SDS011;47592;45.904;8.978;2023-06-19T09:36:48;9.60;;;6.60;;
61685;SDS011;47592;45.904;8.978;2023-06-19T09:39:15;8.23;;;6.65;;
61685;SDS011;47592;45.904;8.978;2023-06-19T09:41:43;7.88;;;6.07;;
61685;SDS011;47592;45.904;8.978;2023-06-19T09:44:11;8.27;;;6.30;;
61685;SDS011;47592;45.904;8.978;2023-06-19T09:46:38;8.13;;;6.30;;
61685;SDS011;47592;45.904;8.978;2023-06-19T09:49:06;10.90;;;6.88;;
61685;SDS011;47592;45.904;8.978;2023-06-19T09:51:32;9.40;;;6.50;;
61685;SDS011;47592;45.904;8.978;2023-06-19T09:54:00;11.23;;;6.72;;
61685;SDS011;47592;45.904;8.978;2023-06-19T09:56:29;10.30;;;6.60;;
61685;SDS011;47592;45.904;8.978;2023-06-19T09:58:56;9.43;;;6.85;;
61685;SDS011;47592;45.904;8.978;2023-06-19T10:01:25;10.18;;;6.70;;
61685;SDS011;47592;45.904;8.978;2023-06-19T10:04:00;9.05;;;6.53;;
61685;SDS011;47592;45.904;8.978;2023-06-19T10:06:26;8.75;;;6.50;;
61685;SDS011;47592;45.904;8.978;2023-06-19T10:08:55;8.02;;;6.10;;
61685;SDS011;47592;45.904;8.978;2023-06-19T10:11:22;10.18;;;6.82;;
61685;SDS011;47592;45.904;8.978;2023-06-19T10:13:52;8.30;;;6.63;;
61685;SDS011;47592;45.904;8.978;2023-06-19T10:16:21;7.43;;;6.10;;
61685;SDS011;47592;45.904;8.978;2023-06-19T10:21:15;8.73;;;6.70;;
61685;SDS011;47592;45.904;8.978;2023-06-19T10:23:51;9.02;;;6.22;;
61685;SDS011;47592;45.904;8.978;2023-06-19T10:26:17;8.35;;;6.00;;
61685;SDS011;47592;45.904;8.978;2023-06-19T10:28:46;8.63;;;6.40;;
61685;SDS011;47592;45.904;8.978;2023-06-19T10:31:14;8.60;;;6.32;;
61685;SDS011;47592;45.904;8.978;2023-06-19T10:33:39;7.80;;;6.03;;
61685;SDS011;47592;45.904;8.978;2023-06-19T10:36:14;9.15;;;5.90;;
61685;SDS011;47592;45.904;8.978;2023-06-19T10:38:40;9.25;;;6.43;;
61685;SDS011;47592;45.904;8.978;2023-06-19T10:41:05;9.70;;;6.03;;
61685;SDS011;47592;45.904;8.978;2023-06-19T10:43:30;9.07;;;6.40;;
61685;SDS011;47592;45.904;8.978;2023-06-19T10:45:57;8.23;;;5.97;;
61685;SDS011;47592;45.904;8.978;2023-06-19T10:48:24;8.13;;;6.25;;
61685;SDS011;47592;45.904;8.978;2023-06-19T10:50:49;9.48;;;5.88;;
61685;SDS011;47592;45.904;8.978;2023-06-19T10:53:25;7.90;;;6.03;;
61685;SDS011;47592;45.904;8.978;2023-06-19T10:55:54;8.45;;;6.00;;
61685;SDS011;47592;45.904;8.978;2023-06-19T10:58:19;9.07;;;5.85;;
61685;SDS011;47592;45.904;8.978;2023-06-19T11:00:46;8.93;;;6.10;;
61685;SDS011;47592;45.904;8.978;2023-06-19T11:03:11;8.18;;;6.28;;
61685;SDS011;47592;45.904;8.978;2023-06-19T11:05:37;7.33;;;5.50;;
61685;SDS011;47592;45.904;8.978;2023-06-19T11:08:08;8.02;;;6.22;;
61685;SDS011;47592;45.904;8.978;2023-06-19T11:10:33;8.83;;;5.97;;
61685;SDS011;47592;45.904;8.978;2023-06-19T11:12:58;7.83;;;6.13;;
61685;SDS011;47592;45.904;8.978;2023-06-19T11:15:28;9.82;;;6.05;;
61685;SDS011;47592;45.904;8.978;2023-06-19T11:20:18;8.82;;;6.32;;
61685;SDS011;47592;45.904;8.978;2023-06-19T11:22:43;8.55;;;6.72;;
61685;SDS011;47592;45.904;8.978;2023-06-19T11:25:09;9.30;;;6.13;;
61685;SDS011;47592;45.904;8.978;2023-06-19T11:27:36;9.80;;;6.95;;
61685;SDS011;47592;45.904;8.978;2023-06-19T11:30:03;9.43;;;6.88;;
61685;SDS011;47592;45.904;8.978;2023-06-19T11:32:31;10.27;;;7.10;;
61685;SDS011;47592;45.904;8.978;2023-06-19T11:34:57;8.63;;;7.45;;
61685;SDS011;47592;45.904;8.978;2023-06-19T11:37:22;8.80;;;7.57;;
61685;SDS011;47592;45.904;8.978;2023-06-19T11:39:48;9.30;;;7.80;;
61685;SDS011;47592;45.904;8.978;2023-06-19T11:42:14;9.85;;;7.65;;
61685;SDS011;47592;45.904;8.978;2023-06-19T11:47:21;10.82;;;8.18;;
61685;SDS011;47592;45.904;8.978;2023-06-19T11:49:50;9.38;;;7.88;;
61685;SDS011;47592;45.904;8.978;2023-06-19T11:52:18;9.77;;;7.82;;
61685;SDS011;47592;45.904;8.978;2023-06-19T11:54:44;10.20;;;7.63;;
61685;SDS011;47592;45.904;8.978;2023-06-19T11:57:09;10.70;;;7.40;;
61685;SDS011;47592;45.904;8.978;2023-06-19T11:59:42;8.88;;;7.60;;
61685;SDS011;47592;45.904;8.978;2023-06-19T12:02:08;11.05;;;7.20;;
61685;SDS011;47592;45.904;8.978;2023-06-19T12:04:33;10.70;;;8.13;;
61685;SDS011;47592;45.904;8.978;2023-06-19T12:06:59;9.18;;;7.47;;
61685;SDS011;47592;45.904;8.978;2023-06-19T12:09:24;9.15;;;7.82;;
61685;SDS011;47592;45.904;8.978;2023-06-19T12:11:50;9.52;;;7.50;;
61685;SDS011;47592;45.904;8.978;2023-06-19T12:14:15;11.43;;;7.32;;
61685;SDS011;47592;45.904;8.978;2023-06-19T12:16:40;9.87;;;8.07;;
61685;SDS011;47592;45.904;8.978;2023-06-19T12:19:08;10.20;;;7.35;;
61685;SDS011;47592;45.904;8.978;2023-06-19T12:21:33;9.57;;;7.17;;
61685;SDS011;47592;45.904;8.978;2023-06-19T12:23:58;10.77;;;7.17;;
61685;SDS011;47592;45.904;8.978;2023-06-19T12:26:24;8.95;;;7.28;;
61685;SDS011;47592;45.904;8.978;2023-06-19T12:28:51;8.82;;;7.10;;
61685;SDS011;47592;45.904;8.978;2023-06-19T12:31:19;9.50;;;7.70;;
61685;SDS011;47592;45.904;8.978;2023-06-19T12:33:44;9.48;;;7.13;;
61685;SDS011;47592;45.904;8.978;2023-06-19T12:36:13;9.13;;;6.88;;
61685;SDS011;47592;45.904;8.978;2023-06-19T12:38:39;9.83;;;7.50;;
61685;SDS011;47592;45.904;8.978;2023-06-19T12:41:04;9.38;;;7.18;;
61685;SDS011;47592;45.904;8.978;2023-06-19T12:43:32;11.23;;;7.23;;
61685;SDS011;47592;45.904;8.978;2023-06-19T12:45:57;8.93;;;7.28;;
61685;SDS011;47592;45.904;8.978;2023-06-19T12:48:24;9.65;;;7.65;;
61685;SDS011;47592;45.904;8.978;2023-06-19T12:50:49;8.52;;;7.10;;
61685;SDS011;47592;45.904;8.978;2023-06-19T12:53:15;8.97;;;7.47;;
61685;SDS011;47592;45.904;8.978;2023-06-19T12:55:40;9.77;;;7.63;;
61685;SDS011;47592;45.904;8.978;2023-06-19T12:58:05;9.97;;;7.73;;
61685;SDS011;47592;45.904;8.978;2023-06-19T13:00:30;8.70;;;7.40;;
61685;SDS011;47592;45.904;8.978;2023-06-19T13:02:56;9.35;;;7.93;;
61685;SDS011;47592;45.904;8.978;2023-06-19T13:05:21;10.70;;;8.00;;
61685;SDS011;47592;45.904;8.978;2023-06-19T13:07:46;10.23;;;7.60;;
61685;SDS011;47592;45.904;8.978;2023-06-19T13:10:14;8.93;;;7.53;;
61685;SDS011;47592;45.904;8.978;2023-06-19T13:12:39;11.00;;;7.30;;
61685;SDS011;47592;45.904;8.978;2023-06-19T13:15:09;11.40;;;7.78;;
61685;SDS011;47592;45.904;8.978;2023-06-19T13:17:35;10.35;;;7.82;;
61685;SDS011;47592;45.904;8.978;2023-06-19T13:20:00;10.13;;;8.20;;
61685;SDS011;47592;45.904;8.978;2023-06-19T13:22:25;10.35;;;7.90;;
61685;SDS011;47592;45.904;8.978;2023-06-19T13:24:51;10.00;;;8.18;;
61685;SDS011;47592;45.904;8.978;2023-06-19T13:27:16;10.85;;;8.15;;
61685;SDS011;47592;45.904;8.978;2023-06-19T13:29:42;9.88;;;8.27;;
61685;SDS011;47592;45.904;8.978;2023-06-19T13:32:07;12.68;;;8.15;;
61685;SDS011;47592;45.904;8.978;2023-06-19T13:34:32;9.95;;;8.48;;
61685;SDS011;47592;45.904;8.978;2023-06-19T13:36:58;9.77;;;8.23;;
61685;SDS011;47592;45.904;8.978;2023-06-19T13:39:23;9.30;;;7.60;;
61685;SDS011;47592;45.904;8.978;2023-06-19T13:41:51;10.50;;;7.43;;
61685;SDS011;47592;45.904;8.978;2023-06-19T13:44:16;9.55;;;8.07;;
61685;SDS011;47592;45.904;8.978;2023-06-19T13:46:42;9.45;;;7.80;;
61685;SDS011;47592;45.904;8.978;2023-06-19T13:49:10;10.48;;;7.40;;
61685;SDS011;47592;45.904;8.978;2023-06-19T13:51:38;8.30;;;7.38;;
61685;SDS011;47592;45.904;8.978;2023-06-19T13:54:09;9.68;;;7.50;;
61685;SDS011;47592;45.904;8.978;2023-06-19T13:56:34;10.20;;;7.22;;
61685;SDS011;47592;45.904;8.978;2023-06-19T13:59:02;15.27;;;7.90;;
61685;SDS011;47592;45.904;8.978;2023-06-19T14:01:27;8.75;;;7.80;;
61685;SDS011;47592;45.904;8.978;2023-06-19T14:03:53;10.63;;;7.77;;
61685;SDS011;47592;45.904;8.978;2023-06-19T14:06:18;13.90;;;8.47;;
61685;SDS011;47592;45.904;8.978;2023-06-19T14:08:43;9.50;;;8.17;;
61685;SDS011;47592;45.904;8.978;2023-06-19T14:11:08;10.33;;;7.73;;
61685;SDS011;47592;45.904;8.978;2023-06-19T14:13:37;9.52;;;7.32;;
61685;SDS011;47592;45.904;8.978;2023-06-19T14:16:04;9.23;;;7.97;;
61685;SDS011;47592;45.904;8.978;2023-06-19T14:18:30;8.97;;;8.07;;
61685;SDS011;47592;45.904;8.978;2023-06-19T14:20:55;11.30;;;7.93;;
61685;SDS011;47592;45.904;8.978;2023-06-19T14:23:20;10.07;;;7.57;;
61685;SDS011;47592;45.904;8.978;2023-06-19T14:25:46;15.02;;;8.15;;
61685;SDS011;47592;45.904;8.978;2023-06-19T14:28:11;11.55;;;7.50;;
61685;SDS011;47592;45.904;8.978;2023-06-19T14:30:39;9.77;;;6.93;;
61685;SDS011;47592;45.904;8.978;2023-06-19T14:33:04;9.67;;;7.60;;
61685;SDS011;47592;45.904;8.978;2023-06-19T14:35:29;10.00;;;7.30;;
61685;SDS011;47592;45.904;8.978;2023-06-19T14:37:58;10.13;;;7.23;;
61685;SDS011;47592;45.904;8.978;2023-06-19T14:40:23;9.50;;;7.07;;
61685;SDS011;47592;45.904;8.978;2023-06-19T14:42:48;10.33;;;7.70;;
61685;SDS011;47592;45.904;8.978;2023-06-19T14:45:14;10.75;;;7.03;;
61685;SDS011;47592;45.904;8.978;2023-06-19T14:47:42;8.47;;;7.40;;
61685;SDS011;47592;45.904;8.978;2023-06-19T14:50:08;10.15;;;8.15;;
61685;SDS011;47592;45.904;8.978;2023-06-19T14:52:35;9.15;;;7.50;;